Terminal Aerodrome Forecast
Issued by NWS

Home | Current Version | Previous Version | Text Only | Print | Product List | Glossary On
Versions: 1 2 3 4 5 6 7 8 9 10 11 12 13 14 15 16 17 18 19 20 21 22 23 24 25 26 27 28 29 30 31
000
FTUS43 KDMX 181342 AAA
TAFMCW
TAF AMD
KMCW 181342Z 1814/1912 16004KT 5SM BR SKC
     FM181400 16008KT P6SM SKC
     FM190100 16007KT P6SM SCT070
     FM191000 16008KT 6SM BR BKN070=

USA.gov is the U.S. government's official web portal to all federal, state and local government web resources and services.